Terminal Aerodrome Forecast
Issued by NWS Los Angeles, CA

Home | Current Version | Previous Version | Text Only | Print | Product List | Glossary On
Versions: 1 2 3 4 5 6 7 8 9 10 11 12 13 14 15 16 17 18 19 20 21
000
FTUS46 KLOX 200500 RRA
TAFSMX
TAF
KSMX 200548Z 2006/2106 VRB03KT P6SM VCSH SCT025 OVC040
     FM201100 VRB03KT P6SM OVC025
     FM201900 30009KT P6SM BKN035
     FM210400 VRB03KT P6SM BKN025=

USA.gov is the U.S. government's official web portal to all federal, state and local government web resources and services.